sensor_id;sensor_type;location;lat;lon;timestamp;temperature;humidity
23160;DHT22;11748;50.844;4.396;2023-03-26T00:00:58;10.60;99.90
23160;DHT22;11748;50.844;4.396;2023-03-26T00:03:24;10.60;99.90
23160;DHT22;11748;50.844;4.396;2023-03-26T00:06:19;10.80;99.90
23160;DHT22;11748;50.844;4.396;2023-03-26T00:08:47;11.00;99.90
23160;DHT22;11748;50.844;4.396;2023-03-26T00:11:15;11.10;99.90
23160;DHT22;11748;50.844;4.396;2023-03-26T00:13:41;11.10;99.90
23160;DHT22;11748;50.844;4.396;2023-03-26T00:16:12;11.30;99.90
23160;DHT22;11748;50.844;4.396;2023-03-26T00:18:39;11.40;99.90
23160;DHT22;11748;50.844;4.396;2023-03-26T00:21:07;11.40;99.90
23160;DHT22;11748;50.844;4.396;2023-03-26T00:23:34;11.50;99.90
23160;DHT22;11748;50.844;4.396;2023-03-26T00:26:02;11.50;99.90
23160;DHT22;11748;50.844;4.396;2023-03-26T00:28:28;11.50;99.90
23160;DHT22;11748;50.844;4.396;2023-03-26T00:30:59;11.50;99.90
23160;DHT22;11748;50.844;4.396;2023-03-26T00:33:25;11.50;99.90
23160;DHT22;11748;50.844;4.396;2023-03-26T00:35:56;11.50;99.90
23160;DHT22;11748;50.844;4.396;2023-03-26T00:38:23;11.50;99.90
23160;DHT22;11748;50.844;4.396;2023-03-26T00:40:50;11.50;99.90
23160;DHT22;11748;50.844;4.396;2023-03-26T00:43:17;11.50;99.90
23160;DHT22;11748;50.844;4.396;2023-03-26T00:45:52;11.50;99.90
23160;DHT22;11748;50.844;4.396;2023-03-26T00:48:19;11.50;99.90
23160;DHT22;11748;50.844;4.396;2023-03-26T00:50:46;11.50;99.90
23160;DHT22;11748;50.844;4.396;2023-03-26T00:53:12;11.50;99.90
23160;DHT22;11748;50.844;4.396;2023-03-26T00:55:40;11.50;99.90
23160;DHT22;11748;50.844;4.396;2023-03-26T00:58:06;11.50;99.90
23160;DHT22;11748;50.844;4.396;2023-03-26T01:00:52;11.50;99.90
23160;DHT22;11748;50.844;4.396;2023-03-26T01:03:24;11.50;99.90
23160;DHT22;11748;50.844;4.396;2023-03-26T01:06:30;11.50;99.90
23160;DHT22;11748;50.844;4.396;2023-03-26T01:09:01;11.40;99.90
23160;DHT22;11748;50.844;4.396;2023-03-26T01:11:31;11.40;99.90
23160;DHT22;11748;50.844;4.396;2023-03-26T01:14:07;11.40;99.90
23160;DHT22;11748;50.844;4.396;2023-03-26T01:16:40;11.50;99.90
23160;DHT22;11748;50.844;4.396;2023-03-26T01:19:10;11.40;99.90
23160;DHT22;11748;50.844;4.396;2023-03-26T01:21:37;11.40;99.90
23160;DHT22;11748;50.844;4.396;2023-03-26T01:24:04;11.40;99.90
23160;DHT22;11748;50.844;4.396;2023-03-26T01:26:59;11.40;99.90
23160;DHT22;11748;50.844;4.396;2023-03-26T01:29:42;11.40;99.90
23160;DHT22;11748;50.844;4.396;2023-03-26T01:32:53;11.30;99.90
23160;DHT22;11748;50.844;4.396;2023-03-26T01:38:31;11.30;99.90
23160;DHT22;11748;50.844;4.396;2023-03-26T01:44:15;11.30;99.90
23160;DHT22;11748;50.844;4.396;2023-03-26T01:46:45;11.30;99.90
23160;DHT22;11748;50.844;4.396;2023-03-26T01:49:12;11.30;99.90
23160;DHT22;11748;50.844;4.396;2023-03-26T01:51:39;11.30;99.90
23160;DHT22;11748;50.844;4.396;2023-03-26T01:54:09;11.30;99.90
23160;DHT22;11748;50.844;4.396;2023-03-26T01:56:54;11.30;99.90
23160;DHT22;11748;50.844;4.396;2023-03-26T02:02:44;11.30;99.90
23160;DHT22;11748;50.844;4.396;2023-03-26T02:05:36;11.30;99.90
23160;DHT22;11748;50.844;4.396;2023-03-26T02:08:11;11.30;99.90
23160;DHT22;11748;50.844;4.396;2023-03-26T02:10:44;11.30;99.90
23160;DHT22;11748;50.844;4.396;2023-03-26T02:13:11;11.20;99.90
23160;DHT22;11748;50.844;4.396;2023-03-26T02:15:39;11.20;99.90
23160;DHT22;11748;50.844;4.396;2023-03-26T02:18:05;11.10;99.90
23160;DHT22;11748;50.844;4.396;2023-03-26T02:20:36;11.20;99.90
23160;DHT22;11748;50.844;4.396;2023-03-26T02:23:02;11.20;99.90
23160;DHT22;11748;50.844;4.396;2023-03-26T02:25:28;11.20;99.90
23160;DHT22;11748;50.844;4.396;2023-03-26T02:27:54;11.10;99.90
23160;DHT22;11748;50.844;4.396;2023-03-26T02:30:24;11.20;99.90
23160;DHT22;11748;50.844;4.396;2023-03-26T02:32:51;11.20;99.90
23160;DHT22;11748;50.844;4.396;2023-03-26T02:35:19;11.20;99.90
23160;DHT22;11748;50.844;4.396;2023-03-26T02:37:46;11.30;99.90
23160;DHT22;11748;50.844;4.396;2023-03-26T02:40:18;11.30;99.90
23160;DHT22;11748;50.844;4.396;2023-03-26T02:42:46;11.30;99.90
23160;DHT22;11748;50.844;4.396;2023-03-26T02:45:11;11.20;99.90
23160;DHT22;11748;50.844;4.396;2023-03-26T02:47:37;11.20;99.90
23160;DHT22;11748;50.844;4.396;2023-03-26T02:50:03;11.20;99.90
23160;DHT22;11748;50.844;4.396;2023-03-26T02:52:29;11.30;99.90
23160;DHT22;11748;50.844;4.396;2023-03-26T02:54:55;11.20;99.90
23160;DHT22;11748;50.844;4.396;2023-03-26T02:57:21;11.20;99.90
23160;DHT22;11748;50.844;4.396;2023-03-26T02:59:47;11.30;99.90
23160;DHT22;11748;50.844;4.396;2023-03-26T03:02:15;11.30;99.90
23160;DHT22;11748;50.844;4.396;2023-03-26T03:04:41;11.40;99.90
23160;DHT22;11748;50.844;4.396;2023-03-26T03:07:07;11.40;99.90
23160;DHT22;11748;50.844;4.396;2023-03-26T03:09:32;11.30;99.90
23160;DHT22;11748;50.844;4.396;2023-03-26T03:11:59;11.40;99.90
23160;DHT22;11748;50.844;4.396;2023-03-26T03:14:25;11.40;99.90
23160;DHT22;11748;50.844;4.396;2023-03-26T03:16:50;11.40;99.90
23160;DHT22;11748;50.844;4.396;2023-03-26T03:19:18;11.40;99.90
23160;DHT22;11748;50.844;4.396;2023-03-26T03:21:44;11.40;99.90
23160;DHT22;11748;50.844;4.396;2023-03-26T03:24:10;11.40;99.90
23160;DHT22;11748;50.844;4.396;2023-03-26T03:26:38;11.40;99.90
23160;DHT22;11748;50.844;4.396;2023-03-26T03:29:05;11.40;99.90
23160;DHT22;11748;50.844;4.396;2023-03-26T03:31:31;11.50;99.90
23160;DHT22;11748;50.844;4.396;2023-03-26T03:33:57;11.50;99.90
23160;DHT22;11748;50.844;4.396;2023-03-26T03:36:22;11.40;99.90
23160;DHT22;11748;50.844;4.396;2023-03-26T03:38:49;11.40;99.90
23160;DHT22;11748;50.844;4.396;2023-03-26T03:41:15;11.40;99.90
23160;DHT22;11748;50.844;4.396;2023-03-26T03:43:43;11.30;99.90
23160;DHT22;11748;50.844;4.396;2023-03-26T03:46:09;11.20;99.90
23160;DHT22;11748;50.844;4.396;2023-03-26T03:48:35;11.20;99.90
23160;DHT22;11748;50.844;4.396;2023-03-26T03:51:04;11.20;99.90
23160;DHT22;11748;50.844;4.396;2023-03-26T03:53:30;11.20;99.90
23160;DHT22;11748;50.844;4.396;2023-03-26T03:55:56;11.30;99.90
23160;DHT22;11748;50.844;4.396;2023-03-26T03:58:24;11.30;99.90
23160;DHT22;11748;50.844;4.396;2023-03-26T04:00:53;11.30;99.90
23160;DHT22;11748;50.844;4.396;2023-03-26T04:03:26;11.30;99.90
23160;DHT22;11748;50.844;4.396;2023-03-26T04:05:54;11.20;99.90
23160;DHT22;11748;50.844;4.396;2023-03-26T04:08:21;11.30;99.90
23160;DHT22;11748;50.844;4.396;2023-03-26T04:10:47;11.10;99.90
23160;DHT22;11748;50.844;4.396;2023-03-26T04:13:13;11.00;99.90
23160;DHT22;11748;50.844;4.396;2023-03-26T04:15:41;11.10;99.90
23160;DHT22;11748;50.844;4.396;2023-03-26T04:18:07;11.10;99.90
23160;DHT22;11748;50.844;4.396;2023-03-26T04:20:36;11.20;99.90
23160;DHT22;11748;50.844;4.396;2023-03-26T04:23:03;11.20;99.90
23160;DHT22;11748;50.844;4.396;2023-03-26T04:25:30;11.30;99.90
23160;DHT22;11748;50.844;4.396;2023-03-26T04:27:59;11.30;99.90
23160;DHT22;11748;50.844;4.396;2023-03-26T04:30:31;11.30;99.90
23160;DHT22;11748;50.844;4.396;2023-03-26T04:33:07;11.30;99.90
23160;DHT22;11748;50.844;4.396;2023-03-26T04:35:34;11.30;99.90
23160;DHT22;11748;50.844;4.396;2023-03-26T04:38:03;11.30;99.90
23160;DHT22;11748;50.844;4.396;2023-03-26T04:40:32;11.30;99.90
23160;DHT22;11748;50.844;4.396;2023-03-26T04:42:59;11.30;99.90
23160;DHT22;11748;50.844;4.396;2023-03-26T04:45:28;11.30;99.90
23160;DHT22;11748;50.844;4.396;2023-03-26T04:47:56;11.20;99.90
23160;DHT22;11748;50.844;4.396;2023-03-26T04:50:22;11.20;99.90
23160;DHT22;11748;50.844;4.396;2023-03-26T04:52:48;11.30;99.90
23160;DHT22;11748;50.844;4.396;2023-03-26T04:55:24;11.30;99.90
23160;DHT22;11748;50.844;4.396;2023-03-26T04:57:56;11.30;99.90
23160;DHT22;11748;50.844;4.396;2023-03-26T05:00:24;11.30;99.90
23160;DHT22;11748;50.844;4.396;2023-03-26T05:02:51;11.30;99.90
23160;DHT22;11748;50.844;4.396;2023-03-26T05:05:17;11.30;99.90
23160;DHT22;11748;50.844;4.396;2023-03-26T05:07:43;11.30;99.90
23160;DHT22;11748;50.844;4.396;2023-03-26T05:10:13;11.30;99.90
23160;DHT22;11748;50.844;4.396;2023-03-26T05:12:39;11.20;99.90
23160;DHT22;11748;50.844;4.396;2023-03-26T05:15:06;11.20;99.90
23160;DHT22;11748;50.844;4.396;2023-03-26T05:17:31;11.10;99.90
23160;DHT22;11748;50.844;4.396;2023-03-26T05:20:02;11.10;99.90
23160;DHT22;11748;50.844;4.396;2023-03-26T05:22:28;11.00;99.90
23160;DHT22;11748;50.844;4.396;2023-03-26T05:24:54;11.10;99.90
23160;DHT22;11748;50.844;4.396;2023-03-26T05:27:20;11.10;99.90
23160;DHT22;11748;50.844;4.396;2023-03-26T05:29:46;11.10;99.90
23160;DHT22;11748;50.844;4.396;2023-03-26T05:32:12;11.10;99.90
23160;DHT22;11748;50.844;4.396;2023-03-26T05:34:39;11.20;99.90
23160;DHT22;11748;50.844;4.396;2023-03-26T05:37:05;11.20;99.90
23160;DHT22;11748;50.844;4.396;2023-03-26T05:39:32;11.20;99.90
23160;DHT22;11748;50.844;4.396;2023-03-26T05:41:58;11.20;99.90
23160;DHT22;11748;50.844;4.396;2023-03-26T05:44:23;11.20;99.90
23160;DHT22;11748;50.844;4.396;2023-03-26T05:46:49;11.20;99.90
23160;DHT22;11748;50.844;4.396;2023-03-26T05:49:15;11.20;99.90
23160;DHT22;11748;50.844;4.396;2023-03-26T05:51:41;11.20;99.90
23160;DHT22;11748;50.844;4.396;2023-03-26T05:54:07;11.20;99.90
23160;DHT22;11748;50.844;4.396;2023-03-26T05:56:33;11.20;99.90
23160;DHT22;11748;50.844;4.396;2023-03-26T05:58:58;11.00;99.90
23160;DHT22;11748;50.844;4.396;2023-03-26T06:01:24;10.70;99.90
23160;DHT22;11748;50.844;4.396;2023-03-26T06:03:50;10.70;99.90
23160;DHT22;11748;50.844;4.396;2023-03-26T06:06:18;10.60;99.90
23160;DHT22;11748;50.844;4.396;2023-03-26T06:08:49;10.60;99.90
23160;DHT22;11748;50.844;4.396;2023-03-26T06:11:16;10.60;99.90
23160;DHT22;11748;50.844;4.396;2023-03-26T06:13:43;10.70;99.90
23160;DHT22;11748;50.844;4.396;2023-03-26T06:16:10;10.60;99.90
23160;DHT22;11748;50.844;4.396;2023-03-26T06:18:37;10.50;99.90
23160;DHT22;11748;50.844;4.396;2023-03-26T06:21:04;10.60;99.90
23160;DHT22;11748;50.844;4.396;2023-03-26T06:23:31;10.70;99.90
23160;DHT22;11748;50.844;4.396;2023-03-26T06:25:57;10.60;99.90
23160;DHT22;11748;50.844;4.396;2023-03-26T06:28:24;10.60;99.90
23160;DHT22;11748;50.844;4.396;2023-03-26T06:30:50;10.70;99.90
23160;DHT22;11748;50.844;4.396;2023-03-26T06:33:15;10.80;99.90
23160;DHT22;11748;50.844;4.396;2023-03-26T06:35:42;10.80;99.90
23160;DHT22;11748;50.844;4.396;2023-03-26T06:38:08;10.70;99.90
23160;DHT22;11748;50.844;4.396;2023-03-26T06:40:34;10.70;99.90
23160;DHT22;11748;50.844;4.396;2023-03-26T06:43:00;10.60;99.90
23160;DHT22;11748;50.844;4.396;2023-03-26T06:45:30;10.50;99.90
23160;DHT22;11748;50.844;4.396;2023-03-26T06:47:57;10.50;99.90
23160;DHT22;11748;50.844;4.396;2023-03-26T06:50:22;10.40;99.90
23160;DHT22;11748;50.844;4.396;2023-03-26T06:52:48;10.40;99.90
23160;DHT22;11748;50.844;4.396;2023-03-26T06:55:15;10.50;99.90
23160;DHT22;11748;50.844;4.396;2023-03-26T06:57:41;10.50;99.90
23160;DHT22;11748;50.844;4.396;2023-03-26T07:00:10;10.50;99.90
23160;DHT22;11748;50.844;4.396;2023-03-26T07:02:36;10.50;99.90
23160;DHT22;11748;50.844;4.396;2023-03-26T07:05:02;10.30;99.90
23160;DHT22;11748;50.844;4.396;2023-03-26T07:07:27;10.30;99.90
23160;DHT22;11748;50.844;4.396;2023-03-26T07:09:53;10.30;99.90
23160;DHT22;11748;50.844;4.396;2023-03-26T07:12:19;10.30;99.90
23160;DHT22;11748;50.844;4.396;2023-03-26T07:14:44;10.30;99.90
23160;DHT22;11748;50.844;4.396;2023-03-26T07:17:10;10.30;99.90
23160;DHT22;11748;50.844;4.396;2023-03-26T07:19:36;10.40;99.90
23160;DHT22;11748;50.844;4.396;2023-03-26T07:22:02;10.40;99.90
23160;DHT22;11748;50.844;4.396;2023-03-26T07:24:28;10.40;99.90
23160;DHT22;11748;50.844;4.396;2023-03-26T07:30:05;10.40;99.90
23160;DHT22;11748;50.844;4.396;2023-03-26T07:33:03;10.40;99.90
23160;DHT22;11748;50.844;4.396;2023-03-26T07:35:31;10.40;99.90
23160;DHT22;11748;50.844;4.396;2023-03-26T07:41:30;10.20;99.90
23160;DHT22;11748;50.844;4.396;2023-03-26T07:46:53;10.20;99.90
23160;DHT22;11748;50.844;4.396;2023-03-26T07:49:19;10.20;99.90
23160;DHT22;11748;50.844;4.396;2023-03-26T07:51:46;10.20;99.90
23160;DHT22;11748;50.844;4.396;2023-03-26T07:54:12;10.20;99.90
23160;DHT22;11748;50.844;4.396;2023-03-26T08:02:36;10.10;99.90
23160;DHT22;11748;50.844;4.396;2023-03-26T08:11:13;10.00;99.90
23160;DHT22;11748;50.844;4.396;2023-03-26T08:16:47;10.00;99.90
23160;DHT22;11748;50.844;4.396;2023-03-26T08:19:43;9.90;99.90
23160;DHT22;11748;50.844;4.396;2023-03-26T08:25:03;10.00;99.90
23160;DHT22;11748;50.844;4.396;2023-03-26T08:28:38;10.00;99.90
23160;DHT22;11748;50.844;4.396;2023-03-26T08:30:43;10.00;99.90
23160;DHT22;11748;50.844;4.396;2023-03-26T08:33:14;10.00;99.90
23160;DHT22;11748;50.844;4.396;2023-03-26T08:35:43;9.90;99.90
23160;DHT22;11748;50.844;4.396;2023-03-26T08:38:12;9.90;99.90
23160;DHT22;11748;50.844;4.396;2023-03-26T09:01:21;10.00;99.90
23160;DHT22;11748;50.844;4.396;2023-03-26T09:24:19;9.80;99.90
23160;DHT22;11748;50.844;4.396;2023-03-26T09:26:40;9.80;99.90
23160;DHT22;11748;50.844;4.396;2023-03-26T09:37:28;9.80;99.90
23160;DHT22;11748;50.844;4.396;2023-03-26T09:54:00;9.70;99.90
23160;DHT22;11748;50.844;4.396;2023-03-26T10:02:39;9.80;99.90
23160;DHT22;11748;50.844;4.396;2023-03-26T10:14:23;9.60;99.90
23160;DHT22;11748;50.844;4.396;2023-03-26T10:20:02;9.70;99.90
23160;DHT22;11748;50.844;4.396;2023-03-26T10:22:58;9.70;99.90
23160;DHT22;11748;50.844;4.396;2023-03-26T10:28:15;9.80;99.90
23160;DHT22;11748;50.844;4.396;2023-03-26T10:36:29;9.60;99.90
23160;DHT22;11748;50.844;4.396;2023-03-26T10:52:57;9.70;99.90
23160;DHT22;11748;50.844;4.396;2023-03-26T10:55:35;9.60;99.90
23160;DHT22;11748;50.844;4.396;2023-03-26T10:58:12;9.50;99.90
23160;DHT22;11748;50.844;4.396;2023-03-26T11:00:54;9.40;99.90
23160;DHT22;11748;50.844;4.396;2023-03-26T11:03:25;9.50;99.90
23160;DHT22;11748;50.844;4.396;2023-03-26T11:06:10;9.60;99.90
23160;DHT22;11748;50.844;4.396;2023-03-26T11:19:25;9.40;99.90
23160;DHT22;11748;50.844;4.396;2023-03-26T11:22:13;9.20;99.90
23160;DHT22;11748;50.844;4.396;2023-03-26T11:30:45;9.30;99.90
23160;DHT22;11748;50.844;4.396;2023-03-26T11:33:21;9.40;99.90
23160;DHT22;11748;50.844;4.396;2023-03-26T11:35:51;9.50;99.90
23160;DHT22;11748;50.844;4.396;2023-03-26T11:38:39;9.40;99.90
23160;DHT22;11748;50.844;4.396;2023-03-26T11:41:23;9.50;99.90
23160;DHT22;11748;50.844;4.396;2023-03-26T11:44:41;9.60;99.90
23160;DHT22;11748;50.844;4.396;2023-03-26T11:46:43;9.50;99.90
23160;DHT22;11748;50.844;4.396;2023-03-26T11:49:11;9.40;99.90
23160;DHT22;11748;50.844;4.396;2023-03-26T11:51:40;9.30;99.90
23160;DHT22;11748;50.844;4.396;2023-03-26T11:54:10;9.40;99.90
23160;DHT22;11748;50.844;4.396;2023-03-26T11:57:05;9.40;99.90
23160;DHT22;11748;50.844;4.396;2023-03-26T11:59:53;9.60;99.90
23160;DHT22;11748;50.844;4.396;2023-03-26T12:02:29;9.80;99.90
23160;DHT22;11748;50.844;4.396;2023-03-26T12:05:14;9.90;99.90
23160;DHT22;11748;50.844;4.396;2023-03-26T12:12:47;9.60;99.90
23160;DHT22;11748;50.844;4.396;2023-03-26T12:15:14;9.50;99.90
23160;DHT22;11748;50.844;4.396;2023-03-26T12:17:41;9.40;99.90
23160;DHT22;11748;50.844;4.396;2023-03-26T12:22:52;9.40;99.90
23160;DHT22;11748;50.844;4.396;2023-03-26T12:25:25;9.40;99.90
23160;DHT22;11748;50.844;4.396;2023-03-26T12:27:59;9.40;99.90
23160;DHT22;11748;50.844;4.396;2023-03-26T12:30:51;9.40;99.90
23160;DHT22;11748;50.844;4.396;2023-03-26T12:33:24;9.70;99.90
23160;DHT22;11748;50.844;4.396;2023-03-26T12:35:51;9.90;99.90
23160;DHT22;11748;50.844;4.396;2023-03-26T12:38:34;9.80;99.90
23160;DHT22;11748;50.844;4.396;2023-03-26T12:43:47;10.00;99.90
23160;DHT22;11748;50.844;4.396;2023-03-26T12:48:57;10.20;99.90
23160;DHT22;11748;50.844;4.396;2023-03-26T12:57:19;10.60;99.90
23160;DHT22;11748;50.844;4.396;2023-03-26T13:15:56;10.20;99.90
23160;DHT22;11748;50.844;4.396;2023-03-26T13:18:51;10.30;99.90
23160;DHT22;11748;50.844;4.396;2023-03-26T13:21:57;10.40;99.90
23160;DHT22;11748;50.844;4.396;2023-03-26T13:27:28;10.40;99.90
23160;DHT22;11748;50.844;4.396;2023-03-26T13:29:58;10.50;99.90
23160;DHT22;11748;50.844;4.396;2023-03-26T13:40:36;10.50;99.90
23160;DHT22;11748;50.844;4.396;2023-03-26T13:43:58;10.50;99.90
23160;DHT22;11748;50.844;4.396;2023-03-26T13:46:30;10.50;99.90
23160;DHT22;11748;50.844;4.396;2023-03-26T13:49:08;10.50;99.90
23160;DHT22;11748;50.844;4.396;2023-03-26T13:51:40;10.40;99.90
23160;DHT22;11748;50.844;4.396;2023-03-26T13:54:28;10.50;99.90
23160;DHT22;11748;50.844;4.396;2023-03-26T14:02:09;10.50;99.90
23160;DHT22;11748;50.844;4.396;2023-03-26T14:04:43;10.50;99.90
23160;DHT22;11748;50.844;4.396;2023-03-26T14:07:30;10.40;99.90
23160;DHT22;11748;50.844;4.396;2023-03-26T14:10:28;10.50;99.90
23160;DHT22;11748;50.844;4.396;2023-03-26T14:15:46;10.30;99.90
23160;DHT22;11748;50.844;4.396;2023-03-26T14:18:34;10.40;99.90
23160;DHT22;11748;50.844;4.396;2023-03-26T14:26:48;10.30;99.90
23160;DHT22;11748;50.844;4.396;2023-03-26T14:34:41;10.50;99.90
23160;DHT22;11748;50.844;4.396;2023-03-26T14:37:32;10.50;99.90
23160;DHT22;11748;50.844;4.396;2023-03-26T14:45:21;10.40;99.90
23160;DHT22;11748;50.844;4.396;2023-03-26T14:53:36;10.60;99.90
23160;DHT22;11748;50.844;4.396;2023-03-26T14:56:09;10.50;99.90
23160;DHT22;11748;50.844;4.396;2023-03-26T15:08:46;10.70;99.90
23160;DHT22;11748;50.844;4.396;2023-03-26T15:40:02;10.00;99.90
23160;DHT22;11748;50.844;4.396;2023-03-26T15:45:41;10.00;99.90
23160;DHT22;11748;50.844;4.396;2023-03-26T15:53:59;10.00;99.90
23160;DHT22;11748;50.844;4.396;2023-03-26T16:08:18;9.80;99.90
23160;DHT22;11748;50.844;4.396;2023-03-26T16:10:51;9.60;99.90
23160;DHT22;11748;50.844;4.396;2023-03-26T16:13:31;9.60;99.90
23160;DHT22;11748;50.844;4.396;2023-03-26T16:18:34;9.30;99.90
23160;DHT22;11748;50.844;4.396;2023-03-26T16:35:02;9.20;99.90
23160;DHT22;11748;50.844;4.396;2023-03-26T16:37:48;9.30;99.90
23160;DHT22;11748;50.844;4.396;2023-03-26T16:56:07;9.90;99.90
23160;DHT22;11748;50.844;4.396;2023-03-26T16:58:56;9.90;99.90
23160;DHT22;11748;50.844;4.396;2023-03-26T17:01:45;9.80;99.90
23160;DHT22;11748;50.844;4.396;2023-03-26T17:04:17;9.80;99.90
23160;DHT22;11748;50.844;4.396;2023-03-26T17:12:39;9.40;99.90
23160;DHT22;11748;50.844;4.396;2023-03-26T17:18:33;9.60;99.90
23160;DHT22;11748;50.844;4.396;2023-03-26T17:21:31;9.60;99.90
23160;DHT22;11748;50.844;4.396;2023-03-26T17:24:00;9.40;99.90
23160;DHT22;11748;50.844;4.396;2023-03-26T17:32:05;9.20;99.90
23160;DHT22;11748;50.844;4.396;2023-03-26T17:42:27;9.50;99.90
23160;DHT22;11748;50.844;4.396;2023-03-26T17:45:28;9.40;99.90
23160;DHT22;11748;50.844;4.396;2023-03-26T17:47:52;9.40;99.90
23160;DHT22;11748;50.844;4.396;2023-03-26T17:50:26;9.40;99.90
23160;DHT22;11748;50.844;4.396;2023-03-26T17:53:00;9.40;99.90
23160;DHT22;11748;50.844;4.396;2023-03-26T17:55:30;9.20;99.90
23160;DHT22;11748;50.844;4.396;2023-03-26T17:58:01;9.20;99.90
23160;DHT22;11748;50.844;4.396;2023-03-26T18:00:38;9.20;99.90
23160;DHT22;11748;50.844;4.396;2023-03-26T18:05:38;9.10;99.90
23160;DHT22;11748;50.844;4.396;2023-03-26T18:11:31;9.20;99.90
23160;DHT22;11748;50.844;4.396;2023-03-26T18:16:48;9.10;99.90
23160;DHT22;11748;50.844;4.396;2023-03-26T18:19:19;9.20;99.90
23160;DHT22;11748;50.844;4.396;2023-03-26T18:21:51;9.10;99.90
23160;DHT22;11748;50.844;4.396;2023-03-26T18:24:27;9.10;99.90
23160;DHT22;11748;50.844;4.396;2023-03-26T18:27:04;9.00;99.90
23160;DHT22;11748;50.844;4.396;2023-03-26T18:29:32;9.10;99.90
23160;DHT22;11748;50.844;4.396;2023-03-26T18:32:18;9.30;99.90
23160;DHT22;11748;50.844;4.396;2023-03-26T18:34:52;9.10;99.90
23160;DHT22;11748;50.844;4.396;2023-03-26T18:37:22;9.00;99.90
23160;DHT22;11748;50.844;4.396;2023-03-26T18:40:07;9.00;99.90
23160;DHT22;11748;50.844;4.396;2023-03-26T18:42:38;9.00;99.90
23160;DHT22;11748;50.844;4.396;2023-03-26T18:45:08;9.00;99.90
23160;DHT22;11748;50.844;4.396;2023-03-26T18:47:34;9.00;99.90
23160;DHT22;11748;50.844;4.396;2023-03-26T18:50:03;9.00;99.90
23160;DHT22;11748;50.844;4.396;2023-03-26T18:52:31;9.20;99.90
23160;DHT22;11748;50.844;4.396;2023-03-26T18:54:57;9.10;99.90
23160;DHT22;11748;50.844;4.396;2023-03-26T18:57:26;9.00;99.90
23160;DHT22;11748;50.844;4.396;2023-03-26T18:59:54;8.70;99.90
23160;DHT22;11748;50.844;4.396;2023-03-26T19:02:22;8.70;99.90
23160;DHT22;11748;50.844;4.396;2023-03-26T19:04:49;8.90;99.90
23160;DHT22;11748;50.844;4.396;2023-03-26T19:07:23;8.90;99.90
23160;DHT22;11748;50.844;4.396;2023-03-26T19:09:50;8.80;99.90
23160;DHT22;11748;50.844;4.396;2023-03-26T19:12:22;8.80;99.90
23160;DHT22;11748;50.844;4.396;2023-03-26T19:15:06;8.90;99.90
23160;DHT22;11748;50.844;4.396;2023-03-26T19:17:42;8.80;99.90
23160;DHT22;11748;50.844;4.396;2023-03-26T19:20:18;8.70;99.90
23160;DHT22;11748;50.844;4.396;2023-03-26T19:22:46;8.60;99.90
23160;DHT22;11748;50.844;4.396;2023-03-26T19:25:22;8.50;99.90
23160;DHT22;11748;50.844;4.396;2023-03-26T19:27:50;8.40;99.90
23160;DHT22;11748;50.844;4.396;2023-03-26T19:30:30;8.30;99.90
23160;DHT22;11748;50.844;4.396;2023-03-26T19:33:14;8.50;99.90
23160;DHT22;11748;50.844;4.396;2023-03-26T19:35:43;8.50;99.90
23160;DHT22;11748;50.844;4.396;2023-03-26T19:38:26;8.60;99.90
23160;DHT22;11748;50.844;4.396;2023-03-26T19:40:54;8.60;99.90
23160;DHT22;11748;50.844;4.396;2023-03-26T19:43:21;8.50;99.90
23160;DHT22;11748;50.844;4.396;2023-03-26T19:45:49;8.50;99.90
23160;DHT22;11748;50.844;4.396;2023-03-26T19:48:18;8.50;99.90
23160;DHT22;11748;50.844;4.396;2023-03-26T19:51:02;8.40;99.90
23160;DHT22;11748;50.844;4.396;2023-03-26T19:53:32;8.30;99.90
23160;DHT22;11748;50.844;4.396;2023-03-26T19:58:34;8.30;99.90
23160;DHT22;11748;50.844;4.396;2023-03-26T20:01:01;8.30;99.90
23160;DHT22;11748;50.844;4.396;2023-03-26T20:03:35;8.30;99.90
23160;DHT22;11748;50.844;4.396;2023-03-26T20:06:02;8.30;99.90
23160;DHT22;11748;50.844;4.396;2023-03-26T20:08:28;8.40;99.90
23160;DHT22;11748;50.844;4.396;2023-03-26T20:10:55;8.50;99.90
23160;DHT22;11748;50.844;4.396;2023-03-26T20:13:21;8.50;99.90
23160;DHT22;11748;50.844;4.396;2023-03-26T20:15:56;8.60;99.90
23160;DHT22;11748;50.844;4.396;2023-03-26T20:18:22;8.60;99.90
23160;DHT22;11748;50.844;4.396;2023-03-26T20:20:49;8.40;99.90
23160;DHT22;11748;50.844;4.396;2023-03-26T20:23:14;8.40;99.90
23160;DHT22;11748;50.844;4.396;2023-03-26T20:25:47;8.40;99.90
23160;DHT22;11748;50.844;4.396;2023-03-26T20:28:17;8.30;99.90
23160;DHT22;11748;50.844;4.396;2023-03-26T20:30:47;8.50;99.90
23160;DHT22;11748;50.844;4.396;2023-03-26T20:33:26;8.30;99.90
23160;DHT22;11748;50.844;4.396;2023-03-26T20:35:53;8.10;99.90
23160;DHT22;11748;50.844;4.396;2023-03-26T20:38:19;8.10;99.90
23160;DHT22;11748;50.844;4.396;2023-03-26T20:40:45;8.10;99.90
23160;DHT22;11748;50.844;4.396;2023-03-26T20:43:13;8.00;99.90
23160;DHT22;11748;50.844;4.396;2023-03-26T20:45:40;7.90;99.90
23160;DHT22;11748;50.844;4.396;2023-03-26T20:48:06;7.80;99.90
23160;DHT22;11748;50.844;4.396;2023-03-26T20:50:35;7.90;99.90
23160;DHT22;11748;50.844;4.396;2023-03-26T20:53:01;8.00;99.90
23160;DHT22;11748;50.844;4.396;2023-03-26T20:55:27;8.00;99.90
23160;DHT22;11748;50.844;4.396;2023-03-26T20:57:53;8.10;99.90
23160;DHT22;11748;50.844;4.396;2023-03-26T21:00:19;8.20;99.90
23160;DHT22;11748;50.844;4.396;2023-03-26T21:02:50;8.30;99.90
23160;DHT22;11748;50.844;4.396;2023-03-26T21:05:17;8.20;99.90
23160;DHT22;11748;50.844;4.396;2023-03-26T21:07:50;8.20;99.90
23160;DHT22;11748;50.844;4.396;2023-03-26T21:10:16;8.20;99.90
23160;DHT22;11748;50.844;4.396;2023-03-26T21:15:13;8.10;99.90
23160;DHT22;11748;50.844;4.396;2023-03-26T21:17:40;8.00;99.90
23160;DHT22;11748;50.844;4.396;2023-03-26T21:20:06;8.00;99.90
23160;DHT22;11748;50.844;4.396;2023-03-26T21:22:59;8.00;99.90
23160;DHT22;11748;50.844;4.396;2023-03-26T21:28:48;7.90;99.90
23160;DHT22;11748;50.844;4.396;2023-03-26T21:31:19;7.90;99.90
23160;DHT22;11748;50.844;4.396;2023-03-26T21:33:47;7.80;99.90
23160;DHT22;11748;50.844;4.396;2023-03-26T21:36:14;7.80;99.90
23160;DHT22;11748;50.844;4.396;2023-03-26T21:38:41;7.80;99.90
23160;DHT22;11748;50.844;4.396;2023-03-26T21:41:57;7.70;99.90
23160;DHT22;11748;50.844;4.396;2023-03-26T21:44:23;7.70;99.90
23160;DHT22;11748;50.844;4.396;2023-03-26T21:46:50;7.80;99.90
23160;DHT22;11748;50.844;4.396;2023-03-26T21:49:16;7.80;99.90
23160;DHT22;11748;50.844;4.396;2023-03-26T21:51:43;7.70;99.90
23160;DHT22;11748;50.844;4.396;2023-03-26T21:54:22;7.70;99.90
23160;DHT22;11748;50.844;4.396;2023-03-26T21:57:14;7.70;99.90
23160;DHT22;11748;50.844;4.396;2023-03-26T22:00:06;7.80;99.90
23160;DHT22;11748;50.844;4.396;2023-03-26T22:05:36;7.50;99.90
23160;DHT22;11748;50.844;4.396;2023-03-26T22:08:04;7.50;99.90
23160;DHT22;11748;50.844;4.396;2023-03-26T22:10:30;7.60;99.90
23160;DHT22;11748;50.844;4.396;2023-03-26T22:12:57;7.50;99.90